Time;durP1;ratioP1;P1;durP2;ratioP2;P2;SDS_P1;SDS_P2;PMS_P1;PMS_P2;Temp;Humidity;BMP_temperature;BMP_pressure;BME280_temperature;BME280_humidity;BME280_pressure;Samples;Min_cycle;Max_cycle;Signal;HPM_P1;HPM_P2
2023/05/23 00:00:23;;;;;;;5.60;3.50;;;;;;;13.42;nan;-20026.13;5013202;28;20226;-72
2023/05/23 00:02:48;;;;;;;7.60;3.45;;;;;;;13.63;nan;-18747.94;5012791;28;20230;-71
2023/05/23 00:05:16;;;;;;;5.57;3.63;;;;;;;13.54;nan;-18104.69;5012684;28;20180;-69
2023/05/23 00:07:42;;;;;;;4.65;3.08;;;;;;;13.48;nan;-18103.63;5012563;28;20168;-69
2023/05/23 00:10:08;;;;;;;4.20;3.15;;;;;;;13.34;nan;-17459.75;5012889;28;20190;-70
2023/05/23 00:12:34;;;;;;;5.72;3.58;;;;;;;13.35;nan;-17139.28;5014525;28;20180;-68
2023/05/23 00:14:59;;;;;;;4.70;3.05;;;;;;;13.39;nan;-17781.31;5013826;28;20650;-67
2023/05/23 00:17:25;;;;;;;4.05;3.28;;;;;;;13.35;nan;-18421.88;5022662;28;20222;-69
2023/05/23 00:19:50;;;;;;;5.55;3.47;;;;;;;13.42;nan;-18743.81;5019460;28;20223;-70
2023/05/23 00:22:16;;;;;;;6.15;3.35;;;;;;;13.04;nan;-19057.09;5017837;28;20259;-68
2023/05/23 00:24:42;;;;;;;5.50;3.40;;;;;;;13.27;nan;-19702.50;5022781;28;20516;-71
2023/05/23 00:27:08;;;;;;;5.97;3.85;;;;;;;13.03;nan;-20017.91;5021788;28;20227;-69
2023/05/23 00:29:33;;;;;;;5.43;3.70;;;;;;;13.32;nan;-20023.88;5016804;28;20269;-69
2023/05/23 00:31:59;;;;;;;4.72;3.45;;;;;;;13.26;nan;-20022.81;5014689;28;20183;-67
2023/05/23 00:34:24;;;;;;;4.60;3.30;;;;;;;13.39;nan;-19705.00;5018990;28;20282;-71
2023/05/23 00:36:50;;;;;;;5.97;3.80;;;;;;;13.09;nan;-19378.50;5017780;28;20260;-72
2023/05/23 00:39:18;;;;;;;6.00;3.40;;;;;;;13.29;nan;-19382.44;5021004;28;20187;-72
2023/05/23 00:41:46;;;;;;;7.53;3.42;;;;;;;13.21;nan;-20021.75;5013483;28;20188;-71
2023/05/23 00:44:11;;;;;;;4.32;2.85;;;;;;;13.18;nan;-20021.00;5020139;28;20190;-70
2023/05/23 00:46:37;;;;;;;4.75;3.40;;;;;;;13.05;nan;-20018.34;5016766;28;20191;-71
2023/05/23 00:49:03;;;;;;;4.93;3.40;;;;;;;13.39;nan;-20025.47;5020350;28;20638;-72
2023/05/23 00:51:28;;;;;;;4.82;2.78;;;;;;;13.26;nan;-19702.28;5017668;28;20188;-71
2023/05/23 00:53:54;;;;;;;4.13;3.00;;;;;;;13.03;nan;-20658.44;5019751;28;20217;-70
2023/05/23 00:56:20;;;;;;;5.20;2.80;;;;;;;13.23;nan;-20662.91;5020239;28;20360;-71
2023/05/23 00:58:46;;;;;;;4.90;3.08;;;;;;;13.39;nan;-20025.47;5019760;28;20185;-71
2023/05/23 01:01:13;;;;;;;5.40;3.45;;;;;;;13.42;nan;-20026.13;5018721;28;20194;-70
2023/05/23 01:03:38;;;;;;;4.28;3.15;;;;;;;12.97;nan;-20657.09;5017380;28;20211;-71
2023/05/23 01:06:04;;;;;;;4.45;2.75;;;;;;;13.06;nan;-20658.97;5011397;28;20203;-68
2023/05/23 01:08:29;;;;;;;5.25;3.20;;;;;;;12.90;nan;-21295.66;5011780;28;20179;-72
2023/05/23 01:11:00;;;;;;;4.72;2.83;;;;;;;12.93;nan;-20976.34;5012308;28;20175;-69
2023/05/23 01:13:31;;;;;;;4.03;2.60;;;;;;;13.15;nan;-21301.50;5011829;28;20659;-69
2023/05/23 01:16:03;;;;;;;5.35;3.22;;;;;;;13.20;nan;-21302.78;5011530;28;20203;-72
2023/05/23 01:18:53;;;;;;;4.22;3.10;;;;;;;13.14;nan;-21621.47;5011499;28;20643;-70
2023/05/23 01:21:21;;;;;;;4.70;3.05;;;;;;;12.77;nan;-21932.72;5012190;28;20306;-69
2023/05/23 01:24:09;;;;;;;4.00;2.95;;;;;;;13.00;nan;-22578.44;5012126;28;20164;-72
2023/05/23 01:26:47;;;;;;;4.80;3.17;;;;;;;12.94;nan;-22896.75;5014471;28;20164;-70
2023/05/23 01:29:28;;;;;;;3.97;3.05;;;;;;;12.95;nan;-23217.09;5011669;28;20178;-70
2023/05/23 01:31:57;;;;;;;4.78;3.33;;;;;;;12.85;nan;-23214.44;5011612;28;20477;-69
2023/05/23 01:34:23;;;;;;;4.30;3.28;;;;;;;12.96;nan;-23217.34;5010551;28;20172;-69
2023/05/23 01:36:52;;;;;;;5.57;3.50;;;;;;;12.81;nan;-22573.59;5011889;28;20258;-70
2023/05/23 01:39:17;;;;;;;6.05;3.70;;;;;;;12.63;nan;-22569.00;5013510;28;20184;-67
2023/05/23 01:41:43;;;;;;;5.00;3.30;;;;;;;12.58;nan;-22567.84;5011705;28;20545;-72
2023/05/23 01:44:08;;;;;;;5.85;3.47;;;;;;;12.67;nan;-23209.66;5011451;28;20531;-71
2023/05/23 01:46:38;;;;;;;4.60;2.88;;;;;;;12.80;nan;-23533.06;5011691;28;20168;-72
2023/05/23 01:49:05;;;;;;;4.90;3.15;;;;;;;12.92;nan;-22896.22;5011773;28;20188;-72
2023/05/23 01:51:32;;;;;;;8.43;3.20;;;;;;;12.57;nan;-22887.25;5011702;28;20169;-72
2023/05/23 01:53:58;;;;;;;5.90;3.42;;;;;;;12.67;nan;-22250.28;5009991;28;20270;-71
2023/05/23 01:56:26;;;;;;;5.28;3.50;;;;;;;12.78;nan;-22253.03;5009835;28;20288;-69
2023/05/23 01:58:51;;;;;;;4.90;3.40;;;;;;;12.50;nan;-22565.81;5011851;28;20172;-72
2023/05/23 02:01:17;;;;;;;4.75;3.35;;;;;;;12.71;nan;-22571.03;5011914;28;20690;-69
2023/05/23 02:03:43;;;;;;;4.78;3.33;;;;;;;12.54;nan;-22246.91;5011592;28;20178;-70
2023/05/23 02:06:09;;;;;;;4.65;3.42;;;;;;;12.90;nan;-21615.84;5011466;28;20623;-71
2023/05/23 02:08:34;;;;;;;5.53;3.10;;;;;;;12.55;nan;-21287.56;5013813;28;20616;-70
2023/05/23 02:11:00;;;;;;;5.97;3.63;;;;;;;12.91;nan;-20975.88;5014773;28;20210;-70
2023/05/23 02:13:25;;;;;;;5.72;2.83;;;;;;;12.65;nan;-21290.03;5015066;28;20161;-70
2023/05/23 02:15:51;;;;;;;5.05;3.22;;;;;;;12.88;nan;-20975.09;5019901;28;20231;-68
2023/05/23 02:18:16;;;;;;;5.22;2.90;;;;;;;12.73;nan;-19371.19;5029709;28;20194;-70
2023/05/23 02:20:42;;;;;;;6.03;3.33;;;;;;;12.77;nan;-20012.38;5014700;28;20251;-73
2023/05/23 02:23:08;;;;;;;6.05;3.15;;;;;;;11.99;nan;-19995.81;5014621;28;20643;-68
2023/05/23 02:25:34;;;;;;;8.57;2.97;;;;;;;12.68;nan;-20330.53;5014278;28;20179;-69
2023/05/23 02:27:59;;;;;;;3.80;2.97;;;;;;;12.37;nan;-20643.78;5015211;28;20219;-67
2023/05/23 02:30:24;;;;;;;4.78;3.33;;;;;;;12.68;nan;-20330.53;5016709;28;20176;-69
2023/05/23 02:32:50;;;;;;;4.70;3.47;;;;;;;12.42;nan;-20324.97;5015063;28;20187;-69
2023/05/23 02:35:15;;;;;;;7.35;3.20;;;;;;;12.32;nan;-20002.97;5015171;28;20196;-69
2023/05/23 02:37:41;;;;;;;4.63;3.05;;;;;;;12.71;nan;-20011.09;5014456;28;20165;-70
2023/05/23 02:40:07;;;;;;;3.58;2.90;;;;;;;12.68;nan;-20330.53;5014183;28;20346;-69
2023/05/23 02:42:33;;;;;;;4.13;2.63;;;;;;;12.85;nan;-19373.63;5014481;28;20175;-68
2023/05/23 02:44:58;;;;;;;9.90;3.70;;;;;;;12.47;nan;-19686.06;5014629;28;20164;-70
2023/05/23 02:47:24;;;;;;;4.13;2.78;;;;;;;12.43;nan;-19685.13;5014286;28;20199;-69
2023/05/23 02:49:49;;;;;;;5.40;3.50;;;;;;;12.68;nan;-20010.44;5014096;28;20186;-72
2023/05/23 02:52:15;;;;;;;5.78;3.28;;;;;;;12.49;nan;-19366.31;5015984;28;20215;-69
2023/05/23 02:54:41;;;;;;;4.47;3.10;;;;;;;12.37;nan;-18723.91;5012270;28;20240;-71
2023/05/23 02:57:07;;;;;;;4.40;3.08;;;;;;;12.51;nan;-18726.59;5013993;28;20222;-72
2023/05/23 02:59:32;;;;;;;4.75;3.25;;;;;;;12.60;nan;-18408.03;5014431;28;20172;-69
2023/05/23 03:01:58;;;;;;;7.35;3.25;;;;;;;12.82;nan;-18732.47;5013811;28;20212;-72
2023/05/23 03:04:23;;;;;;;4.55;3.08;;;;;;;12.61;nan;-18088.06;5014118;28;20513;-72
2023/05/23 03:06:53;;;;;;;4.10;3.00;;;;;;;12.71;nan;-17449.22;5014201;28;20191;-69
2023/05/23 03:09:19;;;;;;;6.72;3.10;;;;;;;12.61;nan;-17447.41;5013767;28;20695;-68
2023/05/23 03:11:44;;;;;;;6.05;3.33;;;;;;;12.69;nan;-17769.22;5014098;28;20161;-70
2023/05/23 03:14:10;;;;;;;5.22;3.25;;;;;;;13.02;nan;-18415.81;5013595;28;20663;-70
2023/05/23 03:16:35;;;;;;;4.63;3.08;;;;;;;13.02;nan;-17774.94;5013828;28;20199;-70
2023/05/23 03:19:00;;;;;;;4.60;3.13;;;;;;;12.80;nan;-17771.06;5012596;28;20226;-70
2023/05/23 03:21:26;;;;;;;5.60;3.40;;;;;;;13.07;nan;-16814.09;5014051;28;20223;-67
2023/05/23 03:23:51;;;;;;;5.65;3.65;;;;;;;12.88;nan;-15528.63;5017673;28;20180;-72
2023/05/23 03:26:17;;;;;;;4.80;3.00;;;;;;;13.15;nan;-15853.16;5012936;28;20175;-68
2023/05/23 03:28:42;;;;;;;5.60;3.45;;;;;;;13.35;nan;-15535.19;5018790;28;20184;-69
2023/05/23 03:31:07;;;;;;;5.63;3.20;;;;;;;13.04;nan;-15210.19;5014935;28;20184;-71
2023/05/23 03:33:33;;;;;;;5.15;3.22;;;;;;;13.38;nan;-14893.66;5013800;28;20179;-72
2023/05/23 03:35:58;;;;;;;8.57;3.78;;;;;;;13.35;nan;-15535.13;5013123;28;20612;-70
2023/05/23 03:38:23;;;;;;;4.75;3.60;;;;;;;13.21;nan;-16174.91;5013208;28;20187;-69
2023/05/23 03:40:49;;;;;;;4.35;3.28;;;;;;;13.09;nan;-15852.38;5013264;28;20215;-73
2023/05/23 03:43:14;;;;;;;4.65;3.13;;;;;;;13.29;nan;-14892.56;5013088;28;20230;-69
2023/05/23 03:45:40;;;;;;;6.70;3.97;;;;;;;13.59;nan;-13933.03;5013372;28;20231;-68
2023/05/23 03:48:05;;;;;;;6.10;3.95;;;;;;;13.44;nan;-13289.00;5013052;28;20176;-72
2023/05/23 03:50:31;;;;;;;5.75;3.88;;;;;;;13.42;nan;-11682.66;5013016;28;20191;-69
2023/05/23 03:52:56;;;;;;;9.27;3.92;;;;;;;14.08;nan;-10722.56;5012720;28;20251;-69
2023/05/23 03:55:23;;;;;;;7.57;3.78;;;;;;;14.76;nan;-6536.53;5012443;28;20206;-72
2023/05/23 03:57:49;;;;;;;7.90;4.53;;;;;;;16.01;nan;21375.75;5028530;28;20183;-70
2023/05/23 04:00:15;;;;;;;6.40;4.20;;;;;;;17.21;nan;55422.84;5047480;28;20175;-69
2023/05/23 04:02:40;;;;;;;6.57;3.90;;;;;;;19.09;nan;60038.03;5030739;28;20178;-69
2023/05/23 04:05:06;;;;;;;7.25;4.05;;;;;;;19.81;nan;61117.75;5031827;28;20179;-70
2023/05/23 04:07:35;;;;;;;5.75;3.58;;;;;;;20.67;nan;61436.72;5031920;28;20163;-72
2023/05/23 04:10:02;;;;;;;8.27;3.67;;;;;;;21.84;nan;61905.47;5032020;28;20247;-70
2023/05/23 04:12:30;;;;;;;5.15;3.20;;;;;;;21.88;nan;62021.88;5032262;28;20541;-72
2023/05/23 04:14:56;;;;;;;5.22;3.03;;;;;;;21.59;nan;61833.97;5031992;28;20187;-71
2023/05/23 04:17:22;;;;;;;4.20;2.70;;;;;;;20.94;nan;61807.50;5031980;28;20265;-72
2023/05/23 04:19:48;;;;;;;3.40;2.78;;;;;;;20.63;nan;61761.91;5031891;28;20223;-72
2023/05/23 04:22:13;;;;;;;3.92;2.70;;;;;;;20.61;nan;61907.63;5031138;28;20170;-61
2023/05/23 04:24:39;;;;;;;3.55;2.35;;;;;;;19.70;nan;61597.88;5031199;28;20219;-59
2023/05/23 04:27:06;;;;;;;3.53;2.47;;;;;;;20.34;nan;61627.81;5031837;28;20175;-59
2023/05/23 04:29:32;;;;;;;2.95;2.35;;;;;;;20.94;nan;61739.97;5031226;28;20194;-60
2023/05/23 04:31:58;;;;;;;4.22;2.72;;;;;;;21.11;nan;61790.44;5021512;28;20192;-60
2023/05/23 04:34:23;;;;;;;3.08;2.40;;;;;;;21.52;nan;61817.66;5015631;28;20228;-59
2023/05/23 04:36:49;;;;;;;3.40;2.60;;;;;;;21.23;nan;61808.13;5014756;28;20691;-61
2023/05/23 04:39:15;;;;;;;3.30;2.20;;;;;;;21.34;nan;61828.44;5015731;28;20180;-61
2023/05/23 04:41:43;;;;;;;4.38;2.75;;;;;;;20.56;nan;61710.41;5011242;28;20184;-61
2023/05/23 04:44:08;;;;;;;6.63;2.70;;;;;;;20.69;nan;61857.56;5017802;28;20283;-60
2023/05/23 04:46:35;;;;;;;4.47;2.67;;;;;;;20.64;nan;61664.38;5015001;28;20200;-59
2023/05/23 04:49:01;;;;;;;3.38;2.40;;;;;;;20.29;nan;61623.25;5011359;28;20646;-61
2023/05/23 04:51:26;;;;;;;5.30;2.95;;;;;;;20.56;nan;61723.38;5010845;28;20172;-60
2023/05/23 04:53:52;;;;;;;3.42;2.70;;;;;;;20.43;nan;61664.53;5011274;28;20188;-58
2023/05/23 04:56:19;;;;;;;5.20;2.60;;;;;;;19.85;nan;61615.47;5011009;28;20223;-58
2023/05/23 04:58:46;;;;;;;3.65;2.80;;;;;;;20.13;nan;61641.44;5013201;28;20187;-59
2023/05/23 05:01:12;;;;;;;3.75;2.72;;;;;;;20.11;nan;61631.41;5018432;28;20194;-63
2023/05/23 05:03:38;;;;;;;3.83;2.55;;;;;;;20.33;nan;61670.78;5016764;28;20176;-62
2023/05/23 05:06:06;;;;;;;4.20;2.60;;;;;;;20.49;nan;61727.84;5011219;28;20237;-60
2023/05/23 05:08:32;;;;;;;3.38;2.63;;;;;;;20.11;nan;61794.25;5010045;28;20184;-62
2023/05/23 05:10:58;;;;;;;4.85;2.83;;;;;;;20.32;nan;61853.88;5016538;28;20230;-61
2023/05/23 05:13:23;;;;;;;4.22;2.67;;;;;;;21.39;nan;61816.47;5011258;28;20184;-60
2023/05/23 05:15:48;;;;;;;4.03;2.72;;;;;;;21.54;nan;61849.13;5015812;28;20257;-60
2023/05/23 05:18:15;;;;;;;4.72;3.08;;;;;;;21.44;nan;61863.19;5011253;28;20180;-60
2023/05/23 05:20:46;;;;;;;4.15;2.80;;;;;;;21.06;nan;61815.34;5010784;28;20231;-60
2023/05/23 05:23:12;;;;;;;4.95;3.15;;;;;;;20.34;nan;61711.41;5011163;28;20186;-61
2023/05/23 05:25:37;;;;;;;3.88;2.95;;;;;;;19.82;nan;61617.25;5011031;28;20259;-60
2023/05/23 05:28:04;;;;;;;4.75;3.25;;;;;;;19.63;nan;61602.94;5013486;28;20188;-59
2023/05/23 05:30:34;;;;;;;6.35;3.05;;;;;;;19.12;nan;61558.66;5011381;28;20180;-60
2023/05/23 05:33:01;;;;;;;3.63;2.80;;;;;;;19.09;nan;61487.94;5010892;28;20176;-62
2023/05/23 05:35:26;;;;;;;6.18;3.38;;;;;;;18.95;nan;61488.19;5013578;28;20200;-59
2023/05/23 05:37:52;;;;;;;3.85;2.55;;;;;;;19.22;nan;61552.41;5011201;28;20195;-60
2023/05/23 05:40:17;;;;;;;7.85;2.88;;;;;;;19.06;nan;61520.78;5011362;28;20172;-62
2023/05/23 05:42:43;;;;;;;4.85;2.97;;;;;;;19.45;nan;61549.41;5014985;28;20285;-61
2023/05/23 05:45:10;;;;;;;4.40;2.92;;;;;;;19.38;nan;61533.69;5014799;28;20168;-61
2023/05/23 05:47:38;;;;;;;4.03;3.00;;;;;;;19.16;nan;61504.19;5014559;28;20210;-60
2023/05/23 05:50:07;;;;;;;5.05;2.70;;;;;;;19.09;nan;61514.41;5020225;28;20257;-62
2023/05/23 05:52:37;;;;;;;3.58;2.67;;;;;;;19.31;nan;61528.94;5021373;28;20187;-60
2023/05/23 05:55:05;;;;;;;3.67;2.70;;;;;;;19.20;nan;61542.38;5016301;28;20692;-60
2023/05/23 05:57:31;;;;;;;6.18;3.28;;;;;;;19.38;nan;61591.25;5014749;28;20351;-61
2023/05/23 05:59:56;;;;;;;4.50;2.78;;;;;;;19.44;nan;61587.16;5022312;28;20699;-59
2023/05/23 06:02:22;;;;;;;6.13;3.65;;;;;;;19.70;nan;61572.53;5018574;28;20620;-60
2023/05/23 06:04:47;;;;;;;13.07;3.17;;;;;;;19.82;nan;61601.13;5016633;28;20184;-61
2023/05/23 06:07:12;;;;;;;4.90;3.10;;;;;;;19.81;nan;61644.63;5015353;28;20176;-60
2023/05/23 06:09:38;;;;;;;5.28;3.15;;;;;;;20.20;nan;61682.53;5019325;28;20215;-61
2023/05/23 06:12:03;;;;;;;4.13;3.13;;;;;;;20.34;nan;61732.19;5018527;28;20263;-59
2023/05/23 06:14:29;;;;;;;4.43;3.53;;;;;;;20.19;nan;61700.13;5015438;28;20180;-61
2023/05/23 06:16:54;;;;;;;5.10;3.55;;;;;;;20.72;nan;61738.38;5019639;28;20671;-62
2023/05/23 06:19:20;;;;;;;5.38;3.10;;;;;;;21.07;nan;61806.09;5023226;28;20208;-60
2023/05/23 06:21:45;;;;;;;4.97;3.53;;;;;;;21.47;nan;61838.56;5020228;28;20223;-61
2023/05/23 06:24:11;;;;;;;6.22;3.78;;;;;;;21.77;nan;61903.28;5016943;28;20764;-61
2023/05/23 06:26:36;;;;;;;4.35;3.10;;;;;;;21.76;nan;61943.78;5021166;28;20188;-62
2023/05/23 06:29:02;;;;;;;3.78;2.80;;;;;;;21.09;nan;62044.81;5022821;28;20611;-62
2023/05/23 06:31:28;;;;;;;6.40;3.50;;;;;;;21.51;nan;61923.69;5022324;28;20201;-61
2023/05/23 06:33:53;;;;;;;5.95;3.17;;;;;;;21.38;nan;61885.53;5022110;28;20189;-61
2023/05/23 06:36:19;;;;;;;4.15;2.95;;;;;;;21.37;nan;61894.22;5020007;28;20223;-61
2023/05/23 06:38:44;;;;;;;5.10;3.33;;;;;;;21.73;nan;61929.97;5019749;28;20203;-61
2023/05/23 06:41:10;;;;;;;5.22;3.25;;;;;;;21.15;nan;61865.16;5022084;28;20188;-60
2023/05/23 06:43:35;;;;;;;5.10;3.53;;;;;;;21.37;nan;61897.38;5022986;28;20187;-61
2023/05/23 06:46:01;;;;;;;5.47;3.30;;;;;;;20.94;nan;61825.69;5021337;28;20187;-61
2023/05/23 06:48:26;;;;;;;4.55;3.35;;;;;;;20.96;nan;62085.13;5020297;28;20194;-63
2023/05/23 06:50:52;;;;;;;3.90;3.08;;;;;;;20.86;nan;61834.78;5020883;28;20210;-63
2023/05/23 06:53:17;;;;;;;5.30;3.03;;;;;;;20.94;nan;61838.09;5022754;28;20211;-60
2023/05/23 06:55:43;;;;;;;4.40;3.20;;;;;;;21.07;nan;61832.09;5016133;28;20214;-60
2023/05/23 06:58:08;;;;;;;4.13;3.30;;;;;;;21.24;nan;61869.03;5021496;28;20668;-60
2023/05/23 07:00:33;;;;;;;4.93;3.25;;;;;;;21.26;nan;61848.50;5021905;28;20209;-62
2023/05/23 07:03:02;;;;;;;3.78;2.85;;;;;;;21.27;nan;61873.00;5020072;28;20200;-60
2023/05/23 07:05:27;;;;;;;5.20;3.25;;;;;;;21.30;nan;61870.66;5017529;28;20179;-62
2023/05/23 07:07:53;;;;;;;4.57;3.25;;;;;;;21.35;nan;61887.31;5020790;28;20199;-60
2023/05/23 07:10:18;;;;;;;5.28;3.20;;;;;;;21.52;nan;61973.69;5017811;28;20569;-61
2023/05/23 07:12:44;;;;;;;5.18;3.40;;;;;;;21.28;nan;61892.34;5018715;28;20191;-61
2023/05/23 07:15:11;;;;;;;4.57;3.00;;;;;;;21.83;nan;61972.53;5018562;28;20208;-61
2023/05/23 07:17:36;;;;;;;6.60;3.17;;;;;;;21.85;nan;61959.22;5017694;28;20184;-60
2023/05/23 07:20:03;;;;;;;6.88;3.22;;;;;;;22.13;nan;62135.72;5018352;28;20298;-61
2023/05/23 07:22:30;;;;;;;4.43;2.85;;;;;;;22.41;nan;62001.00;5018499;28;20199;-62
2023/05/23 07:24:55;;;;;;;4.78;3.17;;;;;;;22.32;nan;62014.19;5016342;28;20574;-61
2023/05/23 07:27:21;;;;;;;7.13;3.25;;;;;;;22.41;nan;62025.00;5019477;28;20184;-62
2023/05/23 07:29:46;;;;;;;4.10;2.80;;;;;;;22.16;nan;61993.94;5015595;28;20651;-60
2023/05/23 07:32:12;;;;;;;6.20;3.17;;;;;;;22.38;nan;61995.53;5019703;28;20184;-60
2023/05/23 07:34:37;;;;;;;4.60;2.92;;;;;;;22.42;nan;62211.03;5019981;28;20246;-61
2023/05/23 07:37:03;;;;;;;3.70;2.83;;;;;;;22.35;nan;62041.03;5018805;28;20317;-62
2023/05/23 07:39:28;;;;;;;4.50;3.15;;;;;;;22.55;nan;62071.03;5019067;28;20196;-60
2023/05/23 07:41:53;;;;;;;5.47;3.20;;;;;;;22.10;nan;62033.38;5016454;28;20179;-60
2023/05/23 07:44:19;;;;;;;4.78;3.50;;;;;;;22.18;nan;62008.66;5022161;28;20179;-61
2023/05/23 07:46:45;;;;;;;6.57;3.75;;;;;;;22.71;nan;62084.06;5017529;28;20234;-62
2023/05/23 07:49:10;;;;;;;5.13;3.47;;;;;;;22.64;nan;62245.97;5020854;28;20290;-62
2023/05/23 07:51:36;;;;;;;5.25;3.30;;;;;;;22.66;nan;62060.69;5019234;28;20215;-63
2023/05/23 07:54:01;;;;;;;5.95;3.25;;;;;;;22.27;nan;62026.72;5020212;28;20183;-61
2023/05/23 07:56:27;;;;;;;7.65;3.38;;;;;;;22.39;nan;62201.81;5017885;28;20218;-60
2023/05/23 07:58:52;;;;;;;4.70;3.28;;;;;;;22.41;nan;62040.03;5017693;28;20250;-62
2023/05/23 08:01:19;;;;;;;5.55;3.40;;;;;;;22.80;nan;62096.94;5018913;28;20195;-62
2023/05/23 08:03:44;;;;;;;5.55;3.10;;;;;;;22.97;nan;62105.31;5014992;28;20199;-61
2023/05/23 08:06:10;;;;;;;5.30;3.47;;;;;;;23.02;nan;62174.16;5015700;28;20261;-63
2023/05/23 08:08:36;;;;;;;4.38;3.17;;;;;;;23.40;nan;62203.84;5015579;28;20607;-62
2023/05/23 08:11:02;;;;;;;5.35;3.40;;;;;;;23.25;nan;62169.09;5019131;28;20556;-61
2023/05/23 08:13:27;;;;;;;6.03;3.25;;;;;;;23.65;nan;62237.06;5015069;28;20182;-61
2023/05/23 08:15:53;;;;;;;4.68;3.00;;;;;;;23.40;nan;62193.44;5016637;28;20238;-59
2023/05/23 08:18:21;;;;;;;4.20;3.13;;;;;;;23.63;nan;62203.47;5019184;28;20693;-60
2023/05/23 08:20:49;;;;;;;4.25;3.00;;;;;;;23.94;nan;62183.44;5012600;28;20358;-61
2023/05/23 08:23:16;;;;;;;5.32;3.40;;;;;;;24.27;nan;62315.13;5017620;28;20783;-61
2023/05/23 08:25:42;;;;;;;5.15;3.03;;;;;;;24.34;nan;62328.34;5013820;28;20670;-61
2023/05/23 08:28:07;;;;;;;4.18;2.97;;;;;;;24.12;nan;62335.09;5017930;28;20188;-61
2023/05/23 08:30:33;;;;;;;4.47;2.95;;;;;;;24.52;nan;62354.13;5020163;28;20191;-61
2023/05/23 08:32:59;;;;;;;5.32;3.22;;;;;;;24.52;nan;62348.91;5017055;28;20590;-62
2023/05/23 08:35:25;;;;;;;5.22;3.10;;;;;;;24.91;nan;62303.44;5019557;28;20630;-60
2023/05/23 08:37:51;;;;;;;4.10;2.83;;;;;;;24.79;nan;62298.13;5016638;28;20263;-60
2023/05/23 08:40:21;;;;;;;5.43;3.33;;;;;;;24.68;nan;62471.16;5015256;28;20290;-63
2023/05/23 08:42:50;;;;;;;5.20;2.75;;;;;;;24.92;nan;62309.81;5012637;28;20187;-61
2023/05/23 08:45:17;;;;;;;5.32;3.58;;;;;;;25.21;nan;62314.13;5019028;28;20199;-62
2023/05/23 08:47:43;;;;;;;6.07;3.42;;;;;;;25.09;nan;62303.06;5016732;28;20263;-62
2023/05/23 08:50:14;;;;;;;7.50;3.55;;;;;;;25.07;nan;62340.00;5014487;28;20211;-62
2023/05/23 08:52:53;;;;;;;5.18;2.80;;;;;;;25.32;nan;62297.91;5019053;28;20172;-63
2023/05/23 08:55:19;;;;;;;4.80;2.97;;;;;;;25.48;nan;62501.97;5013041;28;20204;-61
2023/05/23 08:57:45;;;;;;;4.25;3.28;;;;;;;25.61;nan;62350.84;5011898;28;20230;-61
2023/05/23 09:00:14;;;;;;;4.68;2.97;;;;;;;25.71;nan;62697.94;5016780;28;20688;-62
2023/05/23 09:02:42;;;;;;;3.95;2.70;;;;;;;25.62;nan;62480.25;5020417;28;20179;-61
2023/05/23 09:05:11;;;;;;;5.95;2.95;;;;;;;25.72;nan;62290.06;5018800;28;20310;-60
2023/05/23 09:07:37;;;;;;;3.83;3.03;;;;;;;25.70;nan;62345.97;5019115;28;20230;-60
2023/05/23 09:10:07;;;;;;;3.90;2.90;;;;;;;25.59;nan;62388.38;5020455;28;20179;-61
2023/05/23 09:12:35;;;;;;;3.95;2.80;;;;;;;25.11;nan;62438.72;5019785;28;20244;-61
2023/05/23 09:15:02;;;;;;;5.25;3.30;;;;;;;24.84;nan;62241.09;5017983;28;20180;-60
2023/05/23 09:17:27;;;;;;;4.72;2.90;;;;;;;24.82;nan;62316.69;5020182;28;20639;-60
2023/05/23 09:19:53;;;;;;;2.83;2.38;;;;;;;25.61;nan;62463.41;5017407;28;20219;-61
2023/05/23 09:22:24;;;;;;;4.07;2.67;;;;;;;25.07;nan;62402.78;5020609;28;20183;-62
2023/05/23 09:24:51;;;;;;;5.15;3.20;;;;;;;25.20;nan;62301.97;5017564;28;20200;-60
2023/05/23 09:27:17;;;;;;;3.90;2.67;;;;;;;25.56;nan;62371.88;5015231;28;20678;-61
2023/05/23 09:29:43;;;;;;;5.20;2.80;;;;;;;25.65;nan;62387.38;5020775;28;20221;-62
2023/05/23 09:32:17;;;;;;;4.10;2.90;;;;;;;25.82;nan;62385.28;5021976;28;20184;-61
2023/05/23 09:35:03;;;;;;;5.68;3.10;;;;;;;26.41;nan;62553.78;5014995;28;20241;-60
2023/05/23 09:37:31;;;;;;;4.70;2.90;;;;;;;26.70;nan;62592.22;5014691;28;20286;-62
2023/05/23 09:39:58;;;;;;;3.55;2.70;;;;;;;26.51;nan;62516.00;5017028;28;20207;-62
2023/05/23 09:42:23;;;;;;;3.85;2.97;;;;;;;26.25;nan;62585.84;5018789;28;20658;-60
2023/05/23 09:44:49;;;;;;;5.03;3.30;;;;;;;25.49;nan;62644.47;5030632;28;20207;-62
2023/05/23 09:47:16;;;;;;;4.93;3.25;;;;;;;24.98;nan;62317.22;5017749;28;20180;-62
2023/05/23 09:49:46;;;;;;;4.75;2.85;;;;;;;25.08;nan;62283.59;5019062;28;20184;-61
2023/05/23 09:52:14;;;;;;;6.07;3.25;;;;;;;24.53;nan;62211.56;5015074;28;20187;-62
2023/05/23 09:54:39;;;;;;;5.05;3.28;;;;;;;23.71;nan;62173.47;5017514;28;20185;-62
2023/05/23 09:57:09;;;;;;;4.55;3.30;;;;;;;24.18;nan;62153.38;5014785;28;20211;-61
2023/05/23 09:59:40;;;;;;;3.78;3.00;;;;;;;24.35;nan;62300.19;5020223;28;20184;-60
2023/05/23 10:02:07;;;;;;;4.63;3.42;;;;;;;24.96;nan;62387.59;5017405;28;20303;-62
2023/05/23 10:04:34;;;;;;;4.28;3.17;;;;;;;25.32;nan;62399.38;5017035;28;20180;-62
2023/05/23 10:07:21;;;;;;;4.03;3.10;;;;;;;25.03;nan;62304.06;5016936;28;20659;-63
2023/05/23 10:09:55;;;;;;;4.32;2.78;;;;;;;25.19;nan;62324.94;5014915;28;20184;-62
2023/05/23 10:12:39;;;;;;;4.57;2.88;;;;;;;25.50;nan;62480.16;5016865;28;20208;-62
2023/05/23 10:15:07;;;;;;;4.82;3.28;;;;;;;25.47;nan;62472.06;5016818;28;20274;-62
2023/05/23 10:17:56;;;;;;;5.00;3.28;;;;;;;26.17;nan;62503.84;5014342;28;20750;-61
2023/05/23 10:20:28;;;;;;;6.65;3.35;;;;;;;26.11;nan;62557.25;5014498;28;20693;-61
2023/05/23 10:22:54;;;;;;;4.32;3.20;;;;;;;26.32;nan;62413.03;5014524;28;20218;-60
2023/05/23 10:25:20;;;;;;;4.85;3.10;;;;;;;26.46;nan;62505.03;5014643;28;20207;-61
2023/05/23 10:27:48;;;;;;;4.07;2.70;;;;;;;26.12;nan;62581.41;5016540;28;20212;-59
2023/05/23 10:30:14;;;;;;;6.28;3.70;;;;;;;25.89;nan;62406.38;5021676;28;20183;-60
2023/05/23 10:32:43;;;;;;;4.82;3.22;;;;;;;25.77;nan;62395.28;5014556;28;20267;-61
2023/05/23 10:35:44;;;;;;;3.28;2.80;;;;;;;25.66;nan;62438.28;5014353;28;20196;-60
2023/05/23 10:38:19;;;;;;;4.05;2.95;;;;;;;25.59;nan;62404.09;5007018;28;20203;-61
2023/05/23 10:41:17;;;;;;;4.30;3.10;;;;;;;25.31;nan;62341.25;5017015;28;20167;-60
2023/05/23 10:44:20;;;;;;;4.22;2.78;;;;;;;25.25;nan;62441.09;5013260;28;20192;-61
2023/05/23 10:46:56;;;;;;;4.07;2.83;;;;;;;25.10;nan;62277.47;5013627;28;20584;-62
2023/05/23 10:49:36;;;;;;;5.28;3.15;;;;;;;24.82;nan;62397.72;5021646;28;20642;-60
2023/05/23 10:52:02;;;;;;;4.75;3.10;;;;;;;25.45;nan;62637.25;5015464;28;20207;-61
2023/05/23 10:54:34;;;;;;;5.43;3.53;;;;;;;25.90;nan;62425.84;5013527;28;20176;-62
2023/05/23 10:57:04;;;;;;;6.20;3.00;;;;;;;23.76;nan;62294.00;5013174;28;20207;-59
2023/05/23 10:59:30;;;;;;;4.35;3.05;;;;;;;25.73;nan;62356.69;5020817;28;20579;-59
2023/05/23 11:01:56;;;;;;;4.55;2.90;;;;;;;25.96;nan;62453.66;5018241;28;20179;-61
2023/05/23 11:04:26;;;;;;;4.40;3.20;;;;;;;26.00;nan;62415.75;5018462;28;20301;-61
2023/05/23 11:06:53;;;;;;;3.50;2.92;;;;;;;26.06;nan;62433.09;5018665;28;20179;-60
2023/05/23 11:09:20;;;;;;;4.30;3.28;;;;;;;26.18;nan;62569.94;5017983;28;20194;-60
2023/05/23 11:12:06;;;;;;;3.97;3.03;;;;;;;26.58;nan;62512.94;5019035;28;20529;-60
2023/05/23 11:14:32;;;;;;;4.13;3.10;;;;;;;26.50;nan;62727.19;5018185;28;20176;-62
2023/05/23 11:17:18;;;;;;;4.50;3.20;;;;;;;26.01;nan;62409.03;5017920;28;20701;-62
2023/05/23 11:20:03;;;;;;;6.47;3.47;;;;;;;26.31;nan;62451.19;5019154;28;20231;-62
2023/05/23 11:22:29;;;;;;;3.95;2.90;;;;;;;26.31;nan;62613.69;5015878;28;20186;-63
2023/05/23 11:24:56;;;;;;;4.45;3.22;;;;;;;26.69;nan;62517.66;5019284;28;20180;-63
2023/05/23 11:27:28;;;;;;;3.53;3.00;;;;;;;26.66;nan;62598.72;5018795;28;20271;-60
2023/05/23 11:30:13;;;;;;;4.90;3.17;;;;;;;26.41;nan;62475.72;5018911;28;20183;-62
2023/05/23 11:32:39;;;;;;;3.75;2.67;;;;;;;25.93;nan;62411.53;5017490;28;20729;-63
2023/05/23 11:35:09;;;;;;;4.57;3.22;;;;;;;26.24;nan;62409.69;5017063;28;20179;-62
2023/05/23 11:37:37;;;;;;;5.15;3.50;;;;;;;25.83;nan;62347.72;5018539;28;20175;-63
2023/05/23 11:40:51;;;;;;;7.47;3.10;;;;;;;26.06;nan;62527.97;5018486;28;20571;-62
2023/05/23 11:43:16;;;;;;;4.60;3.15;;;;;;;25.46;nan;62324.38;5014149;28;20199;-59
2023/05/23 11:45:42;;;;;;;4.03;2.90;;;;;;;25.65;nan;62496.75;5018352;28;20702;-60
2023/05/23 11:48:12;;;;;;;5.55;3.28;;;;;;;25.81;nan;62379.47;5017638;28;20571;-60